createdAt,value
2022-09-15T00:00:05.512Z,57.18
2022-09-15T00:01:05.547Z,48.05
2022-09-15T00:02:05.652Z,48.62
2022-09-15T00:03:05.543Z,55.01
2022-09-15T00:04:05.480Z,47.80
2022-09-15T00:05:05.476Z,48.97
2022-09-15T00:06:05.467Z,59.99
2022-09-15T00:07:05.477Z,57.75
2022-09-15T00:08:05.467Z,53.83
2022-09-15T00:09:05.490Z,57.85
2022-09-15T00:10:05.439Z,62.85
2022-09-15T00:11:05.441Z,62.71
2022-09-15T00:12:05.438Z,62.65
2022-09-15T00:13:05.447Z,55.35
2022-09-15T00:14:05.427Z,55.55
2022-09-15T00:15:05.423Z,47.97
2022-09-15T00:16:05.399Z,54.45
2022-09-15T00:17:05.456Z,56.29
2022-09-15T00:18:05.412Z,63.46
2022-09-15T00:19:05.385Z,48.12
2022-09-15T00:20:05.381Z,47.94
2022-09-15T00:21:05.383Z,48.84
2022-09-15T00:22:05.371Z,48.49
2022-09-15T00:23:05.412Z,48.80
2022-09-15T00:24:05.353Z,48.65
2022-09-15T00:25:05.351Z,49.77
2022-09-15T00:26:05.355Z,59.96
2022-09-15T00:27:05.343Z,55.19
2022-09-15T00:28:05.327Z,60.21
2022-09-15T00:29:05.342Z,55.03
2022-09-15T00:30:05.313Z,59.07
2022-09-15T00:31:05.381Z,54.73
2022-09-15T00:32:05.299Z,58.70
2022-09-15T00:33:05.297Z,54.66
2022-09-15T00:34:05.287Z,56.52
2022-09-15T00:35:05.279Z,57.02
2022-09-15T00:36:05.275Z,54.68
2022-09-15T00:37:05.272Z,54.61
2022-09-15T00:38:05.275Z,54.50
2022-09-15T00:39:05.253Z,59.60
2022-09-15T00:40:05.307Z,54.29
2022-09-15T00:41:05.256Z,53.91
2022-09-15T00:42:05.239Z,53.78
2022-09-15T00:43:05.234Z,57.91
2022-09-15T00:44:05.251Z,53.58
2022-09-15T00:45:05.235Z,53.39
2022-09-15T00:46:05.251Z,53.52
2022-09-15T00:47:18.661Z,53.48
2022-09-15T00:48:07.190Z,58.03
2022-09-15T00:49:05.183Z,53.44
2022-09-15T00:50:05.232Z,53.77
2022-09-15T00:51:05.183Z,58.65
2022-09-15T00:52:05.167Z,57.80
2022-09-15T00:53:05.167Z,54.15
2022-09-15T00:54:05.144Z,55.91
2022-09-15T00:55:05.182Z,56.40
2022-09-15T00:56:05.158Z,60.81
2022-09-15T00:57:05.146Z,57.09
2022-09-15T00:58:05.139Z,53.68
2022-09-15T00:59:05.122Z,53.26
2022-09-15T01:00:05.120Z,53.58
2022-09-15T01:01:05.748Z,53.57
2022-09-15T01:02:05.154Z,58.91
2022-09-15T01:03:05.095Z,54.20
2022-09-15T01:04:05.105Z,54.29
2022-09-15T01:05:05.096Z,58.19
2022-09-15T01:06:05.158Z,54.73
2022-09-15T01:07:05.072Z,62.60
2022-09-15T01:08:05.074Z,53.44
2022-09-15T01:09:05.055Z,53.24
2022-09-15T01:10:05.058Z,57.49
2022-09-15T01:11:05.038Z,53.10
2022-09-15T01:12:05.040Z,60.32
2022-09-15T01:13:05.026Z,53.33
2022-09-15T01:14:05.062Z,56.28
2022-09-15T01:15:05.012Z,53.56
2022-09-15T01:16:05.037Z,53.40
2022-09-15T01:17:05.006Z,59.54
2022-09-15T01:18:05.057Z,58.26
2022-09-15T01:19:05.031Z,63.77
2022-09-15T01:20:04.987Z,57.47
2022-09-15T01:21:04.971Z,53.74
2022-09-15T01:22:04.962Z,58.21
2022-09-15T01:23:04.966Z,53.63
2022-09-15T01:24:04.952Z,53.78
2022-09-15T01:25:04.959Z,56.07
2022-09-15T01:26:04.966Z,54.62
2022-09-15T01:27:18.761Z,54.20
2022-09-15T01:28:06.995Z,54.30
2022-09-15T01:29:04.927Z,54.25
2022-09-15T01:30:04.938Z,54.27
2022-09-15T01:31:04.907Z,54.33
2022-09-15T01:32:05.004Z,54.55
2022-09-15T01:33:04.911Z,54.61
2022-09-15T01:34:04.950Z,54.45
2022-09-15T01:35:04.886Z,54.31
2022-09-15T01:36:04.895Z,61.73
2022-09-15T01:37:04.863Z,54.44
2022-09-15T01:38:04.859Z,54.18
2022-09-15T01:39:04.852Z,53.87
2022-09-15T01:40:04.875Z,59.48
2022-09-15T01:41:04.865Z,59.53
2022-09-15T01:42:04.828Z,53.60
2022-09-15T01:43:04.819Z,59.70
2022-09-15T01:44:04.816Z,53.66
2022-09-15T01:45:04.815Z,61.10
2022-09-15T01:46:04.899Z,53.77
2022-09-15T01:47:04.792Z,53.29
2022-09-15T01:48:04.796Z,54.96
2022-09-15T01:49:04.790Z,57.60
2022-09-15T01:50:04.775Z,53.18
2022-09-15T01:51:04.763Z,53.66
2022-09-15T01:52:04.771Z,54.80
2022-09-15T01:53:04.758Z,58.46
2022-09-15T01:54:04.755Z,58.27
2022-09-15T01:55:04.739Z,65.16
2022-09-15T01:56:04.735Z,53.26
2022-09-15T01:57:04.751Z,57.99
2022-09-15T01:58:04.724Z,58.03
2022-09-15T01:59:04.719Z,53.40
2022-09-15T02:00:04.719Z,53.59
2022-09-15T02:01:04.773Z,53.45
2022-09-15T02:02:04.766Z,53.48
2022-09-15T02:03:04.731Z,58.81
2022-09-15T02:04:04.687Z,53.65
2022-09-15T02:05:04.681Z,53.72
2022-09-15T02:06:04.682Z,58.76
2022-09-15T02:07:04.683Z,53.81
2022-09-15T02:08:04.663Z,53.78
2022-09-15T02:09:04.646Z,53.80
2022-09-15T02:10:04.634Z,58.63
2022-09-15T02:11:05.642Z,64.30
2022-09-15T02:12:04.642Z,68.57
2022-09-15T02:13:04.658Z,55.92
2022-09-15T02:14:04.610Z,58.46
2022-09-15T02:15:04.618Z,55.38
2022-09-15T02:16:04.652Z,54.39
2022-09-15T02:17:04.607Z,54.52
2022-09-15T02:18:04.610Z,59.95
2022-09-15T02:19:04.578Z,59.58
2022-09-15T02:20:04.584Z,68.34
2022-09-15T02:21:04.586Z,54.63
2022-09-15T02:22:04.575Z,62.32
2022-09-15T02:23:04.574Z,63.51
2022-09-15T02:24:04.574Z,58.45
2022-09-15T02:25:04.545Z,55.17
2022-09-15T02:26:04.538Z,54.75
2022-09-15T02:27:04.547Z,55.80
2022-09-15T02:28:04.547Z,57.11
2022-09-15T02:29:04.518Z,55.21
2022-09-15T02:30:04.578Z,55.28
2022-09-15T02:31:04.574Z,63.51
2022-09-15T02:32:07.280Z,64.52
2022-09-15T02:33:05.514Z,54.89
2022-09-15T02:34:04.494Z,54.99
2022-09-15T02:35:04.514Z,55.59
2022-09-15T02:36:04.470Z,57.96
2022-09-15T02:37:04.478Z,60.09
2022-09-15T02:38:04.486Z,57.05
2022-09-15T02:39:04.462Z,61.35
2022-09-15T02:40:04.540Z,61.83
2022-09-15T02:41:04.439Z,57.19
2022-09-15T02:42:04.429Z,56.91
2022-09-15T02:43:04.429Z,62.99
2022-09-15T02:44:04.441Z,62.10
2022-09-15T02:45:04.414Z,59.14
2022-09-15T02:46:04.502Z,64.98
2022-09-15T02:47:04.407Z,61.53
2022-09-15T02:48:04.402Z,69.92
2022-09-15T02:49:04.410Z,59.15
2022-09-15T02:50:04.377Z,65.05
2022-09-15T02:51:04.391Z,68.30
2022-09-15T02:52:04.381Z,65.32
2022-09-15T02:53:04.361Z,63.39
2022-09-15T02:54:04.358Z,60.05
2022-09-15T02:55:04.354Z,62.77
2022-09-15T02:56:04.345Z,59.91
2022-09-15T02:57:04.353Z,66.67
2022-09-15T02:58:04.329Z,63.12
2022-09-15T02:59:04.320Z,67.50
2022-09-15T03:00:04.317Z,60.80
2022-09-15T03:01:04.394Z,61.49
2022-09-15T03:02:04.346Z,66.64
2022-09-15T03:03:04.296Z,67.08
2022-09-15T03:04:04.301Z,62.20
2022-09-15T03:05:04.297Z,59.29
2022-09-15T03:06:04.278Z,63.15
2022-09-15T03:07:04.308Z,64.14
2022-09-15T03:08:04.272Z,70.43
2022-09-15T03:09:04.266Z,62.87
2022-09-15T03:10:04.285Z,63.32
2022-09-15T03:11:04.269Z,59.83
2022-09-15T03:12:04.273Z,66.59
2022-09-15T03:13:04.737Z,63.11
2022-09-15T03:14:04.241Z,63.01
2022-09-15T03:15:04.221Z,67.98
2022-09-15T03:16:04.272Z,64.67
2022-09-15T03:17:04.201Z,67.90
2022-09-15T03:18:04.223Z,63.69
2022-09-15T03:19:04.209Z,58.63
2022-09-15T03:20:04.254Z,63.50
2022-09-15T03:23:30.722Z,66.80
2022-09-15T03:24:30.713Z,63.22
2022-09-15T03:25:30.742Z,60.98
2022-09-15T03:26:30.709Z,65.25
2022-09-15T03:27:30.714Z,63.62
2022-09-15T03:28:30.699Z,63.47
2022-09-15T03:29:30.690Z,67.91
2022-09-15T03:30:30.690Z,67.22
2022-09-15T03:31:30.714Z,68.83
2022-09-15T03:32:30.677Z,66.85
2022-09-15T03:33:30.644Z,59.79
2022-09-15T03:34:30.661Z,69.22
2022-09-15T03:35:30.673Z,73.05
2022-09-15T03:36:30.646Z,68.17
2022-09-15T03:37:30.633Z,71.69
2022-09-15T03:38:30.620Z,64.41
2022-09-15T03:39:30.612Z,72.35
2022-09-15T03:40:30.660Z,69.23
2022-09-15T03:41:30.634Z,67.18
2022-09-15T03:42:30.602Z,67.49
2022-09-15T03:43:30.608Z,69.99
2022-09-15T03:44:30.584Z,67.93
2022-09-15T03:45:30.631Z,71.31
2022-09-15T03:46:30.593Z,65.11
2022-09-15T03:47:30.565Z,64.47
2022-09-15T03:48:30.551Z,69.47
2022-09-15T03:49:30.551Z,66.66
2022-09-15T03:50:30.568Z,68.49
2022-09-15T03:51:30.559Z,71.00
2022-09-15T03:52:30.531Z,67.90
2022-09-15T03:53:30.518Z,68.55
2022-09-15T03:54:30.534Z,67.90
2022-09-15T03:55:30.515Z,62.43
2022-09-15T03:56:30.519Z,65.85
2022-09-15T03:57:30.527Z,65.74
2022-09-15T03:58:31.010Z,68.44
2022-09-15T03:59:31.505Z,71.69
2022-09-15T04:00:30.504Z,64.60
2022-09-15T04:01:30.638Z,71.19
2022-09-15T04:02:30.457Z,69.93
2022-09-15T04:03:30.490Z,64.89
2022-09-15T04:04:30.459Z,60.58
2022-09-15T04:05:30.436Z,64.19
2022-09-15T04:06:30.425Z,64.87
2022-09-15T04:07:31.426Z,68.65
2022-09-15T04:08:30.436Z,69.47
2022-09-15T04:09:30.435Z,70.79
2022-09-15T04:10:30.434Z,71.05
2022-09-15T04:11:30.411Z,72.25
2022-09-15T04:12:30.398Z,72.59
2022-09-15T04:13:30.387Z,66.99
2022-09-15T04:14:30.411Z,67.51
2022-09-15T04:15:30.443Z,69.29
2022-09-15T04:16:30.430Z,65.59
2022-09-15T04:17:30.378Z,72.70
2022-09-15T04:18:30.366Z,71.06
2022-09-15T04:19:30.354Z,72.98
2022-09-15T04:20:30.367Z,68.61
2022-09-15T04:21:30.357Z,71.68
2022-09-15T04:22:30.332Z,63.94
2022-09-15T04:23:30.363Z,70.11
2022-09-15T04:24:30.332Z,60.75
2022-09-15T04:25:30.331Z,72.97
2022-09-15T04:26:30.315Z,67.04
2022-09-15T04:27:30.297Z,67.52
2022-09-15T04:28:30.278Z,70.68
2022-09-15T04:29:30.307Z,71.12
2022-09-15T04:30:31.395Z,72.82
2022-09-15T04:31:30.404Z,75.09
2022-09-15T04:32:30.258Z,69.93
2022-09-15T04:33:30.266Z,73.12
2022-09-15T04:34:30.318Z,74.56
2022-09-15T04:35:30.274Z,73.75
2022-09-15T04:36:30.238Z,69.95
2022-09-15T04:37:30.233Z,74.25
2022-09-15T04:38:30.258Z,71.94
2022-09-15T04:39:30.335Z,72.93
2022-09-15T04:40:30.275Z,69.31
2022-09-15T04:41:30.193Z,71.73
2022-09-15T04:42:30.203Z,72.76
2022-09-15T04:43:30.335Z,73.84
2022-09-15T04:44:30.177Z,70.78
2022-09-15T04:45:30.304Z,72.00
2022-09-15T04:46:30.260Z,73.45
2022-09-15T04:47:30.172Z,74.67
2022-09-15T04:48:30.176Z,73.74
2022-09-15T04:49:30.167Z,70.97
2022-09-15T04:50:30.747Z,72.31
2022-09-15T04:51:30.128Z,74.12
2022-09-15T04:52:30.251Z,67.87
2022-09-15T04:53:30.127Z,73.33
2022-09-15T04:54:30.143Z,72.46
2022-09-15T04:55:30.102Z,70.41
2022-09-15T04:56:30.125Z,71.47
2022-09-15T04:57:30.086Z,67.65
2022-09-15T04:58:30.081Z,70.22
2022-09-15T04:59:30.109Z,72.37
2022-09-15T05:00:30.241Z,75.67
2022-09-15T05:01:30.063Z,68.96
2022-09-15T05:02:30.202Z,68.58
2022-09-15T05:03:30.056Z,68.79
2022-09-15T05:04:30.072Z,69.23
2022-09-15T05:05:30.035Z,73.38
2022-09-15T05:06:30.040Z,73.01
2022-09-15T05:07:30.027Z,73.02
2022-09-15T05:08:30.844Z,71.35
2022-09-15T05:09:30.042Z,74.19
2022-09-15T05:10:30.031Z,70.18
2022-09-15T05:11:30.006Z,71.72
2022-09-15T05:12:29.990Z,71.32
2022-09-15T05:13:29.991Z,72.47
2022-09-15T05:14:30.030Z,71.08
2022-09-15T05:15:29.986Z,75.58
2022-09-15T05:16:30.124Z,71.35
2022-09-15T05:17:29.956Z,73.77
2022-09-15T05:18:29.955Z,71.37
2022-09-15T05:19:29.954Z,72.53
2022-09-15T05:20:29.937Z,68.22
2022-09-15T05:21:29.969Z,69.95
2022-09-15T05:22:29.925Z,67.46
2022-09-15T05:23:29.942Z,73.74
2022-09-15T05:24:29.909Z,71.95
2022-09-15T05:25:29.909Z,72.35
2022-09-15T05:26:29.899Z,70.68
2022-09-15T05:27:29.909Z,73.03
2022-09-15T05:28:29.892Z,73.87
2022-09-15T05:29:29.880Z,72.57
2022-09-15T05:30:38.746Z,72.79
2022-09-15T05:31:31.985Z,75.07
2022-09-15T05:32:29.929Z,75.73
2022-09-15T05:33:29.859Z,73.19
2022-09-15T05:34:29.853Z,71.89
2022-09-15T05:35:29.853Z,73.01
2022-09-15T05:36:29.881Z,72.86
2022-09-15T05:37:29.824Z,74.10
2022-09-15T05:38:29.849Z,69.28
2022-09-15T05:39:29.833Z,73.99
2022-09-15T05:40:29.839Z,73.21
2022-09-15T05:41:29.806Z,71.26
2022-09-15T05:42:29.810Z,69.40
2022-09-15T05:43:29.785Z,68.55
2022-09-15T05:44:29.787Z,73.35
2022-09-15T05:45:30.816Z,72.30
2022-09-15T05:46:29.852Z,70.75
2022-09-15T05:47:29.750Z,74.29
2022-09-15T05:48:29.753Z,72.52
2022-09-15T05:49:29.821Z,69.99
2022-09-15T05:50:29.771Z,71.50
2022-09-15T05:51:29.750Z,73.84
2022-09-15T05:52:29.730Z,74.56
2022-09-15T05:53:29.710Z,71.05
2022-09-15T05:54:29.715Z,69.45
2022-09-15T05:55:29.695Z,70.30
2022-09-15T05:56:29.707Z,71.61
2022-09-15T05:57:29.726Z,71.27
2022-09-15T05:58:29.678Z,69.52
2022-09-15T05:59:29.683Z,71.86
2022-09-15T06:00:29.664Z,69.40
2022-09-15T06:01:29.751Z,70.90
2022-09-15T06:02:29.690Z,70.47
2022-09-15T06:03:31.141Z,67.55
2022-09-15T06:04:30.641Z,73.18
2022-09-15T06:05:29.646Z,68.58
2022-09-15T06:06:29.634Z,70.10
2022-09-15T06:07:29.631Z,65.01
2022-09-15T06:08:29.611Z,71.57
2022-09-15T06:09:29.618Z,73.60
2022-09-15T06:10:29.604Z,70.61
2022-09-15T06:11:30.381Z,74.54
2022-09-15T06:12:29.592Z,72.73
2022-09-15T06:13:29.587Z,70.81
2022-09-15T06:14:29.593Z,74.16
2022-09-15T06:15:29.581Z,71.27
2022-09-15T06:16:29.606Z,73.66
2022-09-15T06:17:29.555Z,74.61
2022-09-15T06:18:29.555Z,70.42
2022-09-15T06:19:29.542Z,70.13
2022-09-15T06:20:29.544Z,74.58
2022-09-15T06:21:29.596Z,72.18
2022-09-15T06:22:29.519Z,67.25
2022-09-15T06:23:29.510Z,72.38
2022-09-15T06:24:29.524Z,71.67
2022-09-15T06:25:29.510Z,75.35
2022-09-15T06:26:29.515Z,71.78
2022-09-15T06:27:29.491Z,74.07
2022-09-15T06:28:29.470Z,72.45
2022-09-15T06:29:29.481Z,74.10
2022-09-15T06:30:29.473Z,69.29
2022-09-15T06:31:29.498Z,71.66
2022-09-15T06:32:29.468Z,69.55
2022-09-15T06:33:29.551Z,71.91
2022-09-15T06:34:29.458Z,74.04
2022-09-15T06:35:29.441Z,72.23
2022-09-15T06:36:29.450Z,66.16
2022-09-15T06:37:29.482Z,72.24
2022-09-15T06:38:29.422Z,71.86
2022-09-15T06:39:29.413Z,71.58
2022-09-15T06:40:29.470Z,70.15
2022-09-15T06:41:38.159Z,75.36
2022-09-15T06:42:31.415Z,69.08
2022-09-15T06:43:29.407Z,71.64
2022-09-15T06:44:29.406Z,67.72
2022-09-15T06:45:29.367Z,73.90
2022-09-15T06:46:29.457Z,74.07
2022-09-15T06:47:29.362Z,65.39
2022-09-15T06:48:29.370Z,73.16
2022-09-15T06:49:29.351Z,68.03
2022-09-15T06:50:29.363Z,73.64
2022-09-15T06:51:29.338Z,74.07
2022-09-15T06:52:29.359Z,68.51
2022-09-15T06:53:29.342Z,71.69
2022-09-15T06:54:29.321Z,72.88
2022-09-15T06:55:30.326Z,69.56
2022-09-15T06:56:29.330Z,70.16
2022-09-15T06:57:29.305Z,73.22
2022-09-15T06:58:29.310Z,73.63
2022-09-15T06:59:29.287Z,70.59
2022-09-15T07:00:29.313Z,71.62
2022-09-15T07:01:29.274Z,70.52
2022-09-15T07:02:29.395Z,72.45
2022-09-15T07:03:29.460Z,70.28
2022-09-15T07:04:29.249Z,73.61
2022-09-15T07:05:29.270Z,72.23
2022-09-15T07:06:29.243Z,70.80
2022-09-15T07:07:29.250Z,66.61
2022-09-15T07:08:29.234Z,65.33
2022-09-15T07:09:29.222Z,71.13
2022-09-15T07:10:29.240Z,68.79
2022-09-15T07:11:29.217Z,71.30
2022-09-15T07:12:29.252Z,72.57
2022-09-15T07:13:29.197Z,68.07
2022-09-15T07:14:29.194Z,69.80
2022-09-15T07:15:29.234Z,68.02
2022-09-15T07:16:29.262Z,67.34
2022-09-15T07:17:29.173Z,67.91
2022-09-15T07:18:29.230Z,68.71
2022-09-15T07:19:29.157Z,74.34
2022-09-15T07:20:29.214Z,71.33
2022-09-15T07:21:29.163Z,73.40
2022-09-15T07:22:29.151Z,72.72
2022-09-15T07:23:29.180Z,69.21
2022-09-15T07:24:29.135Z,66.09
2022-09-15T07:25:29.139Z,70.62
2022-09-15T07:26:29.126Z,70.20
2022-09-15T07:27:29.123Z,70.79
2022-09-15T07:28:29.117Z,67.58
2022-09-15T07:29:29.108Z,73.05
2022-09-15T07:30:29.128Z,71.00
2022-09-15T07:31:29.145Z,66.63
2022-09-15T07:32:29.095Z,71.23
2022-09-15T07:33:29.087Z,71.57
2022-09-15T07:34:29.092Z,69.76
2022-09-15T07:35:29.055Z,72.14
2022-09-15T07:36:29.063Z,67.30
2022-09-15T07:37:29.062Z,73.92
2022-09-15T07:38:29.075Z,74.17
2022-09-15T07:39:29.035Z,70.07
2022-09-15T07:40:29.104Z,69.73
2022-09-15T07:41:29.042Z,69.48
2022-09-15T07:42:32.147Z,71.67
2022-09-15T07:43:31.021Z,65.70
2022-09-15T07:44:29.036Z,69.73
2022-09-15T07:45:29.061Z,72.68
2022-09-15T07:46:29.006Z,66.40
2022-09-15T07:47:28.998Z,70.38
2022-09-15T07:48:28.988Z,71.85
2022-09-15T07:49:29.022Z,72.29
2022-09-15T07:50:28.966Z,71.02
2022-09-15T07:51:28.959Z,67.07
2022-09-15T07:52:29.029Z,70.41
2022-09-15T07:53:29.002Z,68.46
2022-09-15T07:54:28.947Z,71.51
2022-09-15T07:55:29.934Z,63.60
2022-09-15T07:56:28.951Z,71.18
2022-09-15T07:57:28.942Z,67.76
2022-09-15T07:58:28.935Z,67.90
2022-09-15T07:59:28.924Z,73.38
2022-09-15T08:00:28.950Z,72.00
2022-09-15T08:01:28.954Z,71.56
2022-09-15T08:02:28.915Z,68.26
2022-09-15T08:03:28.894Z,73.85
2022-09-15T08:04:28.878Z,72.29
2022-09-15T08:05:28.902Z,68.80
2022-09-15T08:06:28.906Z,71.55
2022-09-15T08:07:28.862Z,68.87
2022-09-15T08:08:28.858Z,70.20
2022-09-15T08:09:28.879Z,69.14
2022-09-15T08:10:28.856Z,71.17
2022-09-15T08:11:28.851Z,68.26
2022-09-15T08:12:28.906Z,68.78
2022-09-15T08:13:28.827Z,69.03
2022-09-15T08:14:28.807Z,71.74
2022-09-15T08:15:28.828Z,73.59
2022-09-15T08:16:28.830Z,71.17
2022-09-15T08:17:28.829Z,72.69
2022-09-15T08:18:28.796Z,72.11
2022-09-15T08:19:28.878Z,63.65
2022-09-15T08:20:28.764Z,70.18
2022-09-15T08:21:28.787Z,68.87
2022-09-15T08:22:28.789Z,67.08
2022-09-15T08:23:28.765Z,72.57
2022-09-15T08:24:28.776Z,69.45
2022-09-15T08:25:28.757Z,64.67
2022-09-15T08:26:28.744Z,67.75
2022-09-15T08:27:28.730Z,74.83
2022-09-15T08:28:28.742Z,69.53
2022-09-15T08:29:28.980Z,71.80
2022-09-15T08:30:28.737Z,70.59
2022-09-15T08:31:28.756Z,67.72
2022-09-15T08:32:28.760Z,70.45
2022-09-15T08:33:29.444Z,71.83
2022-09-15T08:34:28.681Z,73.90
2022-09-15T08:35:28.681Z,71.90
2022-09-15T08:36:28.674Z,71.46
2022-09-15T08:37:28.675Z,69.18
2022-09-15T08:38:28.670Z,72.68
2022-09-15T08:39:28.653Z,71.86
2022-09-15T08:40:28.703Z,69.36
2022-09-15T08:41:28.659Z,69.40
2022-09-15T08:42:28.662Z,75.61
2022-09-15T08:43:28.660Z,74.05
2022-09-15T08:44:28.644Z,71.60
2022-09-15T08:45:28.629Z,72.02
2022-09-15T08:46:28.672Z,69.31
2022-09-15T08:47:28.601Z,72.58
2022-09-15T08:48:28.655Z,72.95
2022-09-15T08:49:50.069Z,68.31
2022-09-15T08:50:30.584Z,66.74
2022-09-15T08:51:28.631Z,69.61
2022-09-15T08:52:28.584Z,73.83
2022-09-15T08:53:28.565Z,76.42
2022-09-15T08:54:28.563Z,74.58
2022-09-15T08:55:28.573Z,74.42
2022-09-15T08:56:28.582Z,70.42
2022-09-15T08:57:28.538Z,70.08
2022-09-15T08:58:28.566Z,72.81
2022-09-15T08:59:28.542Z,74.67
2022-09-15T09:00:28.524Z,71.79
2022-09-15T09:01:28.618Z,72.14
2022-09-15T09:02:28.549Z,69.34
2022-09-15T09:03:28.521Z,71.83
2022-09-15T09:04:28.477Z,70.80
2022-09-15T09:05:28.546Z,74.53
2022-09-15T09:06:28.488Z,72.94
2022-09-15T09:07:28.468Z,75.46
2022-09-15T09:08:28.471Z,71.35
2022-09-15T09:09:28.472Z,76.13
2022-09-15T09:10:28.553Z,75.50
2022-09-15T09:11:28.444Z,73.00
2022-09-15T09:12:28.432Z,71.48
2022-09-15T09:13:32.035Z,74.85
2022-09-15T09:14:30.513Z,70.87
2022-09-15T09:15:28.478Z,65.49
2022-09-15T09:16:28.433Z,72.40
2022-09-15T09:17:28.406Z,74.39
2022-09-15T09:18:28.392Z,70.94
2022-09-15T09:19:32.035Z,70.48
2022-09-15T09:20:29.392Z,73.69
2022-09-15T09:21:28.377Z,73.75
2022-09-15T09:24:40.583Z,69.14
2022-09-15T09:25:40.565Z,72.52
2022-09-15T09:26:40.527Z,70.59
2022-09-15T09:27:40.515Z,68.35
2022-09-15T09:28:40.501Z,74.92
2022-09-15T09:29:40.565Z,71.47
2022-09-15T09:30:40.534Z,74.68
2022-09-15T09:31:40.509Z,71.80
2022-09-15T09:32:40.482Z,65.92
2022-09-15T09:33:45.094Z,70.96
2022-09-15T09:34:42.491Z,63.90
2022-09-15T09:35:40.529Z,69.20
2022-09-15T09:36:40.479Z,72.97
2022-09-15T09:37:40.458Z,72.97
2022-09-15T09:38:40.465Z,72.87
2022-09-15T09:39:40.437Z,70.39
2022-09-15T09:40:40.473Z,72.50
2022-09-15T09:41:40.429Z,70.63
2022-09-15T09:42:40.424Z,74.48
2022-09-15T09:43:40.438Z,72.21
2022-09-15T09:44:40.421Z,73.89
2022-09-15T09:45:40.457Z,72.13
2022-09-15T09:46:41.348Z,73.58
2022-09-15T09:47:40.413Z,69.68
2022-09-15T09:48:40.553Z,74.53
2022-09-15T09:49:40.396Z,66.11
2022-09-15T09:50:40.389Z,68.54
2022-09-15T09:51:40.457Z,72.09
2022-09-15T09:52:40.385Z,74.06
2022-09-15T09:53:40.365Z,72.74
2022-09-15T09:54:40.485Z,72.66
2022-09-15T09:55:40.373Z,68.45
2022-09-15T09:56:40.369Z,69.39
2022-09-15T09:57:40.898Z,72.66
2022-09-15T09:58:41.321Z,73.20
2022-09-15T09:59:40.348Z,68.54
2022-09-15T10:00:40.309Z,66.59
2022-09-15T10:01:40.314Z,70.39
2022-09-15T10:02:40.334Z,64.53
2022-09-15T10:03:40.298Z,68.48
2022-09-15T10:04:40.357Z,71.60
2022-09-15T10:05:40.261Z,70.58
2022-09-15T10:06:40.272Z,71.19
2022-09-15T10:07:40.278Z,72.14
2022-09-15T10:08:40.301Z,72.65
2022-09-15T10:09:40.265Z,69.05
2022-09-15T10:10:40.229Z,73.06
2022-09-15T10:11:40.385Z,71.07
2022-09-15T10:12:40.226Z,73.66
2022-09-15T10:13:40.253Z,72.44
2022-09-15T10:14:40.241Z,71.95
2022-09-15T10:15:40.253Z,73.07
2022-09-15T10:16:40.291Z,74.41
2022-09-15T10:17:41.182Z,70.36
2022-09-15T10:18:40.252Z,71.10
2022-09-15T10:19:40.169Z,71.16
2022-09-15T10:20:40.152Z,68.57
2022-09-15T10:21:40.169Z,69.00
2022-09-15T10:22:40.181Z,75.62
2022-09-15T10:23:40.136Z,71.70
2022-09-15T10:24:40.161Z,74.39
2022-09-15T10:25:57.906Z,73.11
2022-09-15T10:26:42.117Z,74.47
2022-09-15T10:27:40.180Z,71.82
2022-09-15T10:28:40.108Z,75.55
2022-09-15T10:29:40.120Z,68.78
2022-09-15T10:30:40.100Z,72.19
2022-09-15T10:31:40.195Z,67.04
2022-09-15T10:32:41.096Z,71.12
2022-09-15T10:33:40.181Z,74.22
2022-09-15T10:34:40.111Z,66.95
2022-09-15T10:35:40.060Z,73.20
2022-09-15T10:36:40.068Z,71.26
2022-09-15T10:37:40.054Z,72.92
2022-09-15T10:38:40.052Z,71.98
2022-09-15T10:39:40.051Z,72.37
2022-09-15T10:40:40.039Z,72.86
2022-09-15T10:41:40.027Z,71.30
2022-09-15T10:42:40.029Z,72.15
2022-09-15T10:43:40.056Z,75.31
2022-09-15T10:44:40.079Z,71.80
2022-09-15T10:45:40.221Z,73.56
2022-09-15T10:46:39.988Z,71.12
2022-09-15T10:47:40.020Z,69.06
2022-09-15T10:48:39.976Z,70.92
2022-09-15T10:49:39.974Z,72.15
2022-09-15T10:50:40.983Z,67.44
2022-09-15T10:51:39.956Z,72.05
2022-09-15T10:52:39.951Z,67.68
2022-09-15T10:53:39.962Z,71.48
2022-09-15T10:54:39.938Z,70.90
2022-09-15T10:55:52.184Z,73.91
2022-09-15T10:56:41.961Z,70.34
2022-09-15T10:57:40.648Z,72.30
2022-09-15T10:58:42.278Z,70.11
2022-09-15T10:59:40.918Z,73.42
2022-09-15T11:00:40.016Z,71.99
2022-09-15T11:01:39.937Z,71.44
2022-09-15T11:02:40.019Z,71.28
2022-09-15T11:03:39.957Z,73.65
2022-09-15T11:04:39.877Z,72.59
2022-09-15T11:05:40.008Z,67.88
2022-09-15T11:06:39.911Z,73.08
2022-09-15T11:07:39.869Z,72.34
2022-09-15T11:08:39.879Z,73.30
2022-09-15T11:09:39.856Z,71.28
2022-09-15T11:10:39.851Z,72.16
2022-09-15T11:11:39.888Z,71.18
2022-09-15T11:12:39.884Z,70.00
2022-09-15T11:13:39.848Z,71.69
2022-09-15T11:14:39.835Z,69.65
2022-09-15T11:15:39.811Z,71.71
2022-09-15T11:16:39.941Z,69.93
2022-09-15T11:17:39.920Z,74.34
2022-09-15T11:18:39.891Z,66.89
2022-09-15T11:19:39.813Z,70.56
2022-09-15T11:20:39.785Z,70.85
2022-09-15T11:21:39.825Z,71.87
2022-09-15T11:22:39.784Z,73.45
2022-09-15T11:23:39.755Z,73.39
2022-09-15T11:24:39.766Z,70.58
2022-09-15T11:25:39.748Z,69.45
2022-09-15T11:26:39.757Z,71.96
2022-09-15T11:27:39.864Z,73.91
2022-09-15T11:28:39.726Z,73.02
2022-09-15T11:29:39.787Z,72.28
2022-09-15T11:30:42.446Z,73.63
2022-09-15T11:31:40.230Z,67.48
2022-09-15T11:32:39.740Z,71.01
2022-09-15T11:33:40.255Z,77.66
2022-09-15T11:34:39.774Z,72.98
2022-09-15T11:35:39.691Z,73.35
2022-09-15T11:36:39.666Z,72.81
2022-09-15T11:37:39.773Z,71.87
2022-09-15T11:38:39.674Z,72.21
2022-09-15T11:39:39.657Z,74.33
2022-09-15T11:40:39.662Z,70.59
2022-09-15T11:41:39.677Z,69.69
2022-09-15T11:42:39.641Z,73.16
2022-09-15T11:43:39.645Z,73.50
2022-09-15T11:44:39.716Z,68.75
2022-09-15T11:45:39.625Z,73.31
2022-09-15T11:46:39.635Z,74.75
2022-09-15T11:47:39.614Z,73.62
2022-09-15T11:48:39.611Z,71.47
2022-09-15T11:49:39.719Z,72.02
2022-09-15T11:50:39.664Z,73.17
2022-09-15T11:51:39.616Z,72.59
2022-09-15T11:52:39.864Z,72.69
2022-09-15T11:53:39.655Z,74.09
2022-09-15T11:54:39.560Z,67.43
2022-09-15T11:55:39.610Z,71.78
2022-09-15T11:56:39.563Z,74.29
2022-09-15T11:57:39.583Z,72.74
2022-09-15T11:58:39.555Z,74.65
2022-09-15T11:59:39.548Z,70.15
2022-09-15T12:00:39.539Z,71.92
2022-09-15T12:01:39.606Z,71.09
2022-09-15T12:02:39.551Z,74.49
2022-09-15T12:03:39.522Z,70.06
2022-09-15T12:04:39.498Z,72.99
2022-09-15T12:05:39.490Z,70.89
2022-09-15T12:06:44.779Z,72.63
2022-09-15T12:07:41.504Z,69.97
2022-09-15T12:08:39.519Z,70.74
2022-09-15T12:09:39.464Z,74.43
2022-09-15T12:10:39.458Z,70.49
2022-09-15T12:11:39.468Z,74.37
2022-09-15T12:12:39.515Z,73.13
2022-09-15T12:13:39.470Z,74.77
2022-09-15T12:14:39.442Z,74.78
2022-09-15T12:15:39.472Z,74.13
2022-09-15T12:16:39.427Z,74.63
2022-09-15T12:17:39.438Z,71.68
2022-09-15T12:18:42.712Z,73.27
2022-09-15T12:19:41.437Z,70.79
2022-09-15T12:20:39.414Z,72.57
2022-09-15T12:21:39.394Z,73.45
2022-09-15T12:22:39.423Z,71.65
2022-09-15T12:23:39.400Z,74.59
2022-09-15T12:24:39.387Z,73.55
2022-09-15T12:25:39.375Z,74.15
2022-09-15T12:26:39.375Z,73.66
2022-09-15T12:27:39.368Z,72.75
2022-09-15T12:28:39.389Z,73.85
2022-09-15T12:29:41.931Z,73.76
2022-09-15T12:30:40.339Z,71.60
2022-09-15T12:31:39.478Z,71.16
2022-09-15T12:32:39.336Z,71.90
2022-09-15T12:33:39.358Z,70.28
2022-09-15T12:34:39.332Z,75.64
2022-09-15T12:35:39.328Z,73.61
2022-09-15T12:36:39.316Z,73.22
2022-09-15T12:37:39.307Z,71.50
2022-09-15T12:38:39.291Z,73.84
2022-09-15T12:39:39.295Z,71.66
2022-09-15T12:40:39.469Z,71.94
2022-09-15T12:41:39.280Z,72.03
2022-09-15T12:42:39.276Z,71.49
2022-09-15T12:43:39.295Z,72.94
2022-09-15T12:44:39.259Z,74.03
2022-09-15T12:45:39.264Z,76.92
2022-09-15T12:46:39.339Z,74.11
2022-09-15T12:47:39.253Z,72.52
2022-09-15T12:48:39.247Z,72.50
2022-09-15T12:49:39.264Z,70.80
2022-09-15T12:50:39.220Z,71.55
2022-09-15T12:51:39.260Z,73.14
2022-09-15T12:52:39.215Z,74.35
2022-09-15T12:53:40.841Z,72.60
2022-09-15T12:54:39.228Z,72.81
2022-09-15T12:55:39.180Z,74.88
2022-09-15T12:56:39.248Z,70.35